createdAt,value
2019-01-19T00:01:57.983Z,93.40
2019-01-19T00:05:10.390Z,93.60
2019-01-19T00:07:49.616Z,93.60
2019-01-19T00:10:44.108Z,94.10
2019-01-19T00:13:30.374Z,94.50
2019-01-19T00:16:20.015Z,95.30
2019-01-19T00:19:24.666Z,95.30
2019-01-19T00:22:12.391Z,96.00
2019-01-19T00:25:08.702Z,95.70
2019-01-19T00:27:53.453Z,95.40
2019-01-19T00:30:25.394Z,94.90
2019-01-19T00:33:08.837Z,94.30
2019-01-19T00:35:41.779Z,94.70
2019-01-19T00:38:23.942Z,94.50
2019-01-19T00:41:11.974Z,95.20
2019-01-19T00:43:46.579Z,95.50
2019-01-19T00:49:10.805Z,94.70
2019-01-19T00:52:00.333Z,94.60
2019-01-19T00:54:52.170Z,95.10
2019-01-19T00:57:37.164Z,95.80
2019-01-19T01:00:16.511Z,96.20
2019-01-19T01:02:56.165Z,96.30
2019-01-19T01:05:30.685Z,96.50
2019-01-19T01:08:15.985Z,97.00
2019-01-19T01:10:55.120Z,97.60
2019-01-19T01:13:53.956Z,97.10
2019-01-19T01:16:32.942Z,96.70
2019-01-19T01:19:13.277Z,97.00
2019-01-19T01:22:07.374Z,96.50
2019-01-19T01:24:55.693Z,96.20
2019-01-19T01:27:43.941Z,96.00
2019-01-19T01:30:22.803Z,95.90
2019-01-19T01:32:58.679Z,95.80
2019-01-19T01:35:43.829Z,96.20
2019-01-19T01:38:21.495Z,96.20
2019-01-19T01:40:54.057Z,96.30
2019-01-19T01:44:02.318Z,96.40
2019-01-19T01:46:40.980Z,96.60
2019-01-19T01:49:36.298Z,96.50
2019-01-19T01:52:30.377Z,96.50
2019-01-19T01:55:04.735Z,96.40
2019-01-19T01:57:40.877Z,96.30
2019-01-19T02:00:22.846Z,96.20
2019-01-19T02:03:28.260Z,96.30
2019-01-19T02:06:41.677Z,96.50
2019-01-19T02:09:34.254Z,96.40
2019-01-19T02:12:22.366Z,96.90
2019-01-19T02:15:14.735Z,96.50
2019-01-19T02:18:30.590Z,96.40
2019-01-19T02:21:27.654Z,96.50
2019-01-19T02:24:23.329Z,96.60
2019-01-19T02:27:02.114Z,96.60
2019-01-19T02:29:55.730Z,96.80
2019-01-19T02:32:55.825Z,96.80
2019-01-19T02:35:34.744Z,97.10
2019-01-19T02:38:16.701Z,97.10
2019-01-19T02:41:06.952Z,97.00
2019-01-19T02:43:54.764Z,97.20
2019-01-19T02:46:45.738Z,97.50
2019-01-19T02:49:21.429Z,97.70
2019-01-19T02:52:10.935Z,97.70
2019-01-19T02:55:01.750Z,98.30
2019-01-19T02:57:53.926Z,98.80
2019-01-19T03:00:49.979Z,99.10
2019-01-19T03:03:23.061Z,99.70
2019-01-19T03:05:58.379Z,99.90
2019-01-19T03:08:46.456Z,99.90
2019-01-19T03:11:39.103Z,99.90
2019-01-19T03:14:34.279Z,99.90
2019-01-19T03:17:25.192Z,99.90
2019-01-19T03:19:58.158Z,99.90
2019-01-19T03:22:37.885Z,99.90
2019-01-19T03:25:32.045Z,99.90
2019-01-19T03:28:28.976Z,99.90
2019-01-19T03:31:32.347Z,99.90
2019-01-19T03:34:27.809Z,99.90
2019-01-19T03:37:13.010Z,99.90
2019-01-19T03:39:51.777Z,99.90
2019-01-19T03:42:42.908Z,99.90
2019-01-19T03:45:30.819Z,99.90
2019-01-19T03:48:09.745Z,99.90
2019-01-19T03:50:45.428Z,99.90
2019-01-19T03:53:27.746Z,99.90
2019-01-19T03:56:09.653Z,99.90
2019-01-19T03:58:54.725Z,99.90
2019-01-19T04:01:48.634Z,99.90
2019-01-19T04:04:51.777Z,99.90
2019-01-19T04:07:24.661Z,99.90
2019-01-19T04:10:23.342Z,99.90
2019-01-19T04:13:02.136Z,99.90
2019-01-19T04:15:54.757Z,99.90
2019-01-19T04:18:33.869Z,99.90
2019-01-19T04:21:23.225Z,99.90
2019-01-19T04:23:56.157Z,99.90
2019-01-19T04:26:29.082Z,99.90
2019-01-19T04:28:59.596Z,99.90
2019-01-19T04:31:30.024Z,99.90
2019-01-19T04:34:00.776Z,99.90
2019-01-19T04:36:31.294Z,99.90
2019-01-19T04:39:02.752Z,99.90
2019-01-19T04:41:33.192Z,99.90
2019-01-19T04:44:03.692Z,99.90
2019-01-19T04:46:34.182Z,99.90
2019-01-19T04:49:04.744Z,99.90
2019-01-19T04:51:35.167Z,99.90
2019-01-19T04:54:06.750Z,99.90
2019-01-19T04:56:37.258Z,99.90
2019-01-19T04:59:07.629Z,99.90
2019-01-19T05:01:38.006Z,99.90
2019-01-19T05:04:08.721Z,99.90
2019-01-19T05:06:39.110Z,99.90
2019-01-19T05:09:09.674Z,99.90
2019-01-19T05:11:40.126Z,99.90
2019-01-19T05:14:24.118Z,99.90
2019-01-19T05:17:00.893Z,99.90
2019-01-19T05:19:31.503Z,99.90
2019-01-19T05:22:02.070Z,99.90
2019-01-19T05:24:51.535Z,99.90
2019-01-19T05:27:22.169Z,99.90
2019-01-19T05:29:56.833Z,99.90
2019-01-19T05:32:33.089Z,99.90
2019-01-19T05:35:22.754Z,99.90
2019-01-19T05:37:59.363Z,99.90
2019-01-19T05:43:23.550Z,99.90
2019-01-19T05:45:55.339Z,99.90
2019-01-19T05:48:25.774Z,99.90
2019-01-19T05:50:56.231Z,99.90
2019-01-19T05:53:39.316Z,99.90
2019-01-19T05:56:09.756Z,99.90
2019-01-19T05:58:40.162Z,99.90
2019-01-19T06:01:10.619Z,99.90
2019-01-19T06:03:41.088Z,99.90
2019-01-19T06:06:12.122Z,99.90
2019-01-19T06:08:42.650Z,99.90
2019-01-19T06:11:13.001Z,99.90
2019-01-19T06:13:43.358Z,99.90
2019-01-19T06:16:13.766Z,99.90
2019-01-19T06:18:44.882Z,99.90
2019-01-19T06:21:16.317Z,99.90
2019-01-19T06:23:46.765Z,99.90
2019-01-19T06:26:31.331Z,99.90
2019-01-19T06:32:00.005Z,99.90
2019-01-19T06:34:30.397Z,99.90
2019-01-19T06:37:00.767Z,99.90
2019-01-19T06:39:31.254Z,99.90
2019-01-19T06:42:01.551Z,99.90
2019-01-19T06:44:32.030Z,99.90
2019-01-19T06:47:02.490Z,99.90
2019-01-19T06:49:32.883Z,99.90
2019-01-19T06:52:03.196Z,99.90
2019-01-19T06:54:33.884Z,99.90
2019-01-19T06:57:04.292Z,99.90
2019-01-19T06:59:34.764Z,99.90
2019-01-19T07:02:05.228Z,99.90
2019-01-19T07:04:35.527Z,99.90
2019-01-19T07:07:06.161Z,99.90
2019-01-19T07:09:36.661Z,99.90
2019-01-19T07:12:07.501Z,99.90
2019-01-19T07:14:37.951Z,99.90
2019-01-19T07:17:27.103Z,99.90
2019-01-19T07:19:57.524Z,99.90
2019-01-19T07:22:38.381Z,99.90
2019-01-19T07:25:04.268Z,99.90
2019-01-19T07:27:34.754Z,99.90
2019-01-19T07:30:06.625Z,99.90
2019-01-19T07:32:44.847Z,99.90
2019-01-19T07:35:15.132Z,99.90
2019-01-19T07:37:47.170Z,99.90
2019-01-19T07:40:19.319Z,99.90
2019-01-19T07:42:51.244Z,99.90
2019-01-19T07:45:21.613Z,99.90
2019-01-19T07:47:52.118Z,99.90
2019-01-19T07:50:22.490Z,99.90
2019-01-19T07:52:55.547Z,99.90
2019-01-19T07:55:26.002Z,99.90
2019-01-19T07:57:56.356Z,99.90
2019-01-19T08:00:34.655Z,99.90
2019-01-19T08:03:13.988Z,99.90
2019-01-19T08:05:55.974Z,99.90
2019-01-19T08:08:26.993Z,99.90
2019-01-19T08:11:03.275Z,99.90
2019-01-19T08:13:57.256Z,99.90
2019-01-19T08:16:57.776Z,99.90
2019-01-19T08:18:59.699Z,99.90
2019-01-19T08:21:30.287Z,99.90
2019-01-19T08:24:00.748Z,99.90
2019-01-19T08:26:35.433Z,99.90
2019-01-19T08:29:30.559Z,99.90
2019-01-19T08:32:01.089Z,99.90
2019-01-19T08:34:34.232Z,99.90
2019-01-19T08:37:28.525Z,99.90
2019-01-19T08:39:59.128Z,99.90
2019-01-19T08:42:32.034Z,99.90
2019-01-19T08:45:29.869Z,99.90
2019-01-19T08:48:00.915Z,99.90
2019-01-19T08:50:47.730Z,99.90
2019-01-19T08:53:27.790Z,99.90
2019-01-19T08:56:00.947Z,99.90
2019-01-19T08:58:34.806Z,99.90
2019-01-19T09:01:35.581Z,99.90
2019-01-19T09:04:06.135Z,99.90
2019-01-19T09:06:37.264Z,99.90
2019-01-19T09:09:30.467Z,99.90
2019-01-19T09:12:00.938Z,99.90
2019-01-19T09:14:31.526Z,99.90
2019-01-19T09:17:28.736Z,99.90
2019-01-19T09:19:59.166Z,99.90
2019-01-19T09:22:52.984Z,99.90
2019-01-19T09:25:22.872Z,99.90
2019-01-19T09:27:53.370Z,99.90
2019-01-19T09:30:34.376Z,99.90
2019-01-19T09:33:04.743Z,99.90
2019-01-19T09:35:35.191Z,99.90
2019-01-19T09:38:05.649Z,99.90
2019-01-19T09:40:56.057Z,99.90
2019-01-19T09:43:27.847Z,99.90
2019-01-19T09:45:58.664Z,99.90
2019-01-19T09:51:17.773Z,99.90
2019-01-19T09:54:01.685Z,99.90
2019-01-19T09:56:44.430Z,99.90
2019-01-19T09:59:12.075Z,99.90
2019-01-19T10:02:03.520Z,99.90
2019-01-19T10:04:33.885Z,99.90
2019-01-19T10:07:04.421Z,99.90
2019-01-19T10:09:37.609Z,99.90
2019-01-19T10:12:08.155Z,99.90
2019-01-19T10:14:39.579Z,99.90
2019-01-19T10:17:10.244Z,99.90
2019-01-19T10:19:41.228Z,99.90
2019-01-19T10:22:11.657Z,99.90
2019-01-19T10:24:42.063Z,99.90
2019-01-19T10:27:25.664Z,99.90
2019-01-19T10:29:56.094Z,99.90
2019-01-19T10:32:26.554Z,99.90
2019-01-19T10:34:56.938Z,99.90
2019-01-19T10:37:27.440Z,99.90
2019-01-19T10:39:57.847Z,99.90
2019-01-19T10:42:28.282Z,99.90
2019-01-19T10:45:41.842Z,99.90
2019-01-19T10:47:35.696Z,99.90
2019-01-19T10:50:25.084Z,99.90
2019-01-19T10:52:52.728Z,99.90
2019-01-19T10:55:24.585Z,99.90
2019-01-19T10:57:54.966Z,99.90
2019-01-19T11:00:30.551Z,99.90
2019-01-19T11:03:01.129Z,99.90
2019-01-19T11:05:31.643Z,99.90
2019-01-19T11:08:03.857Z,99.90
2019-01-19T11:10:35.821Z,99.90
2019-01-19T11:13:06.804Z,99.90
2019-01-19T11:15:37.445Z,99.90
2019-01-19T11:18:07.808Z,99.90
2019-01-19T11:20:38.168Z,99.90
2019-01-19T11:23:08.631Z,99.90
2019-01-19T11:25:39.042Z,99.90
2019-01-19T11:28:09.534Z,99.90
2019-01-19T11:30:39.998Z,99.90
2019-01-19T11:33:10.386Z,99.90
2019-01-19T11:35:40.747Z,99.90
2019-01-19T11:38:11.983Z,99.90
2019-01-19T11:40:42.732Z,99.90
2019-01-19T11:43:13.194Z,99.90
2019-01-19T11:45:43.503Z,99.90
2019-01-19T11:48:14.076Z,99.90
2019-01-19T11:50:44.457Z,99.90
2019-01-19T11:53:14.892Z,99.90
2019-01-19T11:55:46.807Z,99.90
2019-01-19T11:58:17.287Z,99.90
2019-01-19T12:00:50.536Z,99.90
2019-01-19T12:03:21.158Z,99.90
2019-01-19T12:05:51.491Z,99.90
2019-01-19T12:08:21.926Z,99.90
2019-01-19T12:10:52.347Z,99.90
2019-01-19T12:13:22.686Z,99.90
2019-01-19T12:15:53.391Z,99.90
2019-01-19T12:18:24.034Z,99.90
2019-01-19T12:20:54.448Z,99.90
2019-01-19T12:23:24.805Z,99.90
2019-01-19T12:25:55.400Z,99.90
2019-01-19T12:28:25.809Z,99.90
2019-01-19T12:30:56.510Z,99.90
2019-01-19T12:33:27.038Z,99.90
2019-01-19T12:35:57.469Z,99.90
2019-01-19T12:38:27.977Z,99.90
2019-01-19T12:40:58.377Z,99.90
2019-01-19T12:43:28.778Z,99.90
2019-01-19T12:45:59.156Z,99.90
2019-01-19T12:48:29.652Z,99.90
2019-01-19T12:51:00.095Z,99.90
2019-01-19T12:53:30.905Z,99.90
2019-01-19T12:56:01.601Z,99.90
2019-01-19T12:58:32.252Z,99.90
2019-01-19T13:01:02.750Z,99.90
2019-01-19T13:03:33.086Z,99.90
2019-01-19T13:06:12.036Z,99.90
2019-01-19T13:08:42.463Z,99.90
2019-01-19T13:11:30.478Z,99.90
2019-01-19T13:14:03.363Z,99.90
2019-01-19T13:16:41.268Z,99.90
2019-01-19T13:19:26.053Z,99.90
2019-01-19T13:22:32.184Z,99.90
2019-01-19T13:25:11.151Z,99.90
2019-01-19T13:27:49.979Z,99.90
2019-01-19T13:30:31.774Z,99.90
2019-01-19T13:33:30.092Z,99.90
2019-01-19T13:36:18.130Z,99.90
2019-01-19T13:38:51.183Z,99.90
2019-01-19T13:41:24.059Z,99.90
2019-01-19T13:44:19.729Z,99.90
2019-01-19T13:47:11.984Z,99.90
2019-01-19T13:50:04.929Z,99.90
2019-01-19T13:52:55.841Z,99.90
2019-01-19T13:55:38.927Z,99.90
2019-01-19T13:58:17.850Z,99.90
2019-01-19T14:00:51.030Z,99.90
2019-01-19T14:03:26.639Z,99.90
2019-01-19T14:06:16.433Z,99.90
2019-01-19T14:08:51.966Z,99.90
2019-01-19T14:11:39.929Z,99.90
2019-01-19T14:14:43.196Z,99.90
2019-01-19T14:17:34.940Z,99.90
2019-01-19T14:20:16.944Z,99.90
2019-01-19T14:23:08.138Z,99.90
2019-01-19T14:25:59.678Z,99.90
2019-01-19T14:28:41.487Z,99.90
2019-01-19T14:31:33.978Z,99.90
2019-01-19T14:34:12.760Z,99.90
2019-01-19T14:36:51.536Z,99.90
2019-01-19T14:42:30.808Z,99.90
2019-01-19T14:45:13.703Z,99.90
2019-01-19T14:48:02.392Z,99.90
2019-01-19T14:50:40.900Z,99.90
2019-01-19T14:53:34.829Z,99.90
2019-01-19T14:56:24.153Z,99.90
2019-01-19T14:58:59.884Z,99.90
2019-01-19T15:01:44.667Z,99.90
2019-01-19T15:04:26.647Z,99.90
2019-01-19T15:07:18.838Z,99.70
2019-01-19T15:10:02.479Z,98.40
2019-01-19T15:13:02.874Z,95.90
2019-01-19T15:15:44.841Z,95.00
2019-01-19T15:18:40.750Z,93.10
2019-01-19T15:21:19.959Z,93.80
2019-01-19T15:24:08.288Z,92.40
2019-01-19T15:26:59.225Z,91.20
2019-01-19T15:29:50.586Z,90.70
2019-01-19T15:32:58.422Z,90.10
2019-01-19T15:35:37.973Z,88.00
2019-01-19T15:38:23.137Z,88.30
2019-01-19T15:41:06.495Z,84.00
2019-01-19T15:43:45.796Z,85.90
2019-01-19T15:47:36.284Z,82.00
2019-01-19T15:49:05.981Z,85.40
2019-01-19T15:52:06.242Z,81.60
2019-01-19T15:54:42.183Z,81.00
2019-01-19T15:57:30.265Z,81.30
2019-01-19T16:00:30.571Z,77.10
2019-01-19T16:03:12.619Z,79.60
2019-01-19T16:06:02.555Z,81.40
2019-01-19T16:09:01.293Z,78.00
2019-01-19T16:11:58.714Z,77.70
2019-01-19T16:14:49.855Z,74.50
2019-01-19T16:17:35.180Z,72.80
2019-01-19T16:20:13.729Z,74.20
2019-01-19T16:22:52.522Z,72.00
2019-01-19T16:25:40.721Z,72.40
2019-01-19T16:28:28.357Z,73.70
2019-01-19T16:31:15.890Z,73.60
2019-01-19T16:34:15.134Z,71.60
2019-01-19T16:36:54.236Z,70.20
2019-01-19T16:39:30.044Z,68.60
2019-01-19T16:42:08.851Z,67.30
2019-01-19T16:44:53.829Z,67.80
2019-01-19T16:47:38.666Z,67.80
2019-01-19T16:50:33.224Z,65.70
2019-01-19T16:53:19.151Z,63.50
2019-01-19T16:55:54.974Z,64.70
2019-01-19T16:58:42.676Z,65.30
2019-01-19T17:01:30.542Z,67.20
2019-01-19T17:04:12.428Z,66.50
2019-01-19T17:07:01.967Z,64.60
2019-01-19T17:09:43.618Z,63.70
2019-01-19T17:12:59.037Z,63.00
2019-01-19T17:15:31.985Z,63.80
2019-01-19T17:18:20.041Z,63.10
2019-01-19T17:20:52.379Z,61.30
2019-01-19T17:23:29.326Z,60.40
2019-01-19T17:26:11.441Z,60.30
2019-01-19T17:28:54.876Z,59.20
2019-01-19T17:31:32.407Z,58.10
2019-01-19T17:34:32.397Z,57.60
2019-01-19T17:37:17.454Z,56.80
2019-01-19T17:40:25.781Z,56.20
2019-01-19T17:43:06.566Z,55.70
2019-01-19T17:45:55.952Z,54.90
2019-01-19T17:48:47.465Z,54.40
2019-01-19T17:51:29.585Z,54.60
2019-01-19T17:54:19.177Z,54.90
2019-01-19T17:56:59.785Z,55.30
2019-01-19T17:59:45.235Z,53.40
2019-01-19T18:02:40.618Z,54.10
2019-01-19T18:05:15.931Z,53.30
2019-01-19T18:08:24.073Z,53.10
2019-01-19T18:11:02.831Z,52.60
2019-01-19T18:13:54.623Z,51.10
2019-01-19T18:16:46.262Z,51.10
2019-01-19T18:19:28.873Z,51.80
2019-01-19T18:22:19.990Z,51.60
2019-01-19T18:25:14.706Z,52.00
2019-01-19T18:28:09.526Z,51.80
2019-01-19T18:30:43.107Z,51.20
2019-01-19T18:33:22.298Z,52.00
2019-01-19T18:35:55.419Z,52.20
2019-01-19T18:39:00.061Z,51.90
2019-01-19T18:41:42.073Z,51.30
2019-01-19T18:44:31.745Z,53.00
2019-01-19T18:47:25.836Z,53.10
2019-01-19T18:50:14.913Z,53.10
2019-01-19T18:53:06.777Z,52.30
2019-01-19T18:56:05.241Z,51.30
2019-01-19T18:58:47.409Z,51.30
2019-01-19T19:01:38.489Z,51.50
2019-01-19T19:04:17.427Z,50.80
2019-01-19T19:06:59.597Z,53.30
2019-01-19T19:09:38.429Z,54.40
2019-01-19T19:12:30.227Z,54.50
2019-01-19T19:15:03.556Z,53.90
2019-01-19T19:17:39.450Z,54.00
2019-01-19T19:20:36.692Z,52.50
2019-01-19T19:23:13.941Z,52.30
2019-01-19T19:25:59.150Z,53.00
2019-01-19T19:28:58.816Z,55.30
2019-01-19T19:31:52.298Z,55.60
2019-01-19T19:34:52.726Z,54.90
2019-01-19T19:37:36.447Z,56.20
2019-01-19T19:40:21.302Z,57.20
2019-01-19T19:42:54.550Z,57.40
2019-01-19T19:45:48.782Z,58.40
2019-01-19T19:48:52.451Z,59.80
2019-01-19T19:51:43.261Z,62.30
2019-01-19T19:54:17.734Z,61.10
2019-01-19T19:56:49.577Z,61.80
2019-01-19T19:59:30.788Z,62.40
2019-01-19T20:02:04.388Z,61.30
2019-01-19T20:04:46.408Z,60.70
2019-01-19T20:07:30.189Z,61.90
2019-01-19T20:10:04.865Z,61.10
2019-01-19T20:12:51.937Z,63.60
2019-01-19T20:15:18.534Z,62.60
2019-01-19T20:17:57.749Z,64.80
2019-01-19T20:20:40.727Z,64.50
2019-01-19T20:23:13.976Z,65.90
2019-01-19T20:25:43.514Z,65.20
2019-01-19T20:28:13.922Z,65.90
2019-01-19T20:30:44.526Z,66.10
2019-01-19T20:33:18.377Z,65.40
2019-01-19T20:36:01.771Z,67.00
2019-01-19T20:38:33.834Z,66.20
2019-01-19T20:41:17.127Z,65.80
2019-01-19T20:43:52.901Z,65.20
2019-01-19T20:46:23.651Z,66.00
2019-01-19T20:48:55.369Z,65.00
2019-01-19T20:51:36.660Z,65.30
2019-01-19T20:54:14.726Z,65.80
2019-01-19T20:56:47.741Z,66.30
2019-01-19T20:59:18.115Z,66.00
2019-01-19T21:01:51.725Z,66.30
2019-01-19T21:04:28.024Z,67.40
2019-01-19T21:06:59.982Z,69.20
2019-01-19T21:09:34.411Z,68.40
2019-01-19T21:12:13.029Z,67.70
2019-01-19T21:14:47.276Z,68.20
2019-01-19T21:17:22.373Z,69.10
2019-01-19T21:19:55.078Z,68.50
2019-01-19T21:22:31.749Z,69.20
2019-01-19T21:25:14.081Z,70.20
2019-01-19T21:27:52.630Z,70.00
2019-01-19T21:30:28.993Z,71.80
2019-01-19T21:33:07.813Z,73.10
2019-01-19T21:35:41.238Z,72.00
2019-01-19T21:38:15.736Z,72.60
2019-01-19T21:40:46.183Z,72.70
2019-01-19T21:43:17.986Z,72.90
2019-01-19T21:45:52.613Z,74.00
2019-01-19T21:48:25.881Z,74.40
2019-01-19T21:50:56.469Z,74.90
2019-01-19T21:53:29.855Z,74.20
2019-01-19T21:56:05.953Z,75.20
2019-01-19T21:58:39.390Z,76.50
2019-01-19T22:01:09.977Z,77.50
2019-01-19T22:03:41.705Z,77.50
2019-01-19T22:06:12.157Z,77.20
2019-01-19T22:08:42.668Z,76.40
2019-01-19T22:11:16.893Z,76.70
2019-01-19T22:13:47.223Z,78.30
2019-01-19T22:16:17.620Z,78.40
2019-01-19T22:18:48.019Z,79.40
2019-01-19T22:21:19.501Z,79.30
2019-01-19T22:23:49.945Z,81.40
2019-01-19T22:26:21.114Z,82.10
2019-01-19T22:28:53.429Z,81.20
2019-01-19T22:31:23.805Z,80.90
2019-01-19T22:33:58.696Z,82.10
2019-01-19T22:36:29.327Z,83.10
2019-01-19T22:38:59.993Z,82.50
2019-01-19T22:41:30.485Z,83.90
2019-01-19T22:44:00.944Z,83.80
2019-01-19T22:46:31.272Z,83.70
2019-01-19T22:49:01.687Z,83.70
2019-01-19T22:51:32.126Z,84.70
2019-01-19T22:54:02.580Z,85.20
2019-01-19T22:56:32.966Z,85.30
2019-01-19T22:59:03.413Z,86.00
2019-01-19T23:01:36.593Z,87.00
2019-01-19T23:04:07.187Z,87.50
2019-01-19T23:06:37.704Z,87.70
2019-01-19T23:09:10.314Z,87.80
2019-01-19T23:11:40.715Z,89.60
2019-01-19T23:14:12.136Z,90.00
2019-01-19T23:16:42.668Z,90.40
2019-01-19T23:19:13.233Z,90.40
2019-01-19T23:21:43.627Z,90.40
2019-01-19T23:24:14.147Z,90.50
2019-01-19T23:26:44.767Z,91.30
2019-01-19T23:29:15.814Z,91.70
2019-01-19T23:31:46.214Z,91.60
2019-01-19T23:34:16.660Z,91.60
2019-01-19T23:36:47.158Z,91.80
2019-01-19T23:39:17.690Z,92.50
2019-01-19T23:41:48.200Z,92.70
2019-01-19T23:44:18.604Z,93.50
2019-01-19T23:46:49.022Z,93.90
2019-01-19T23:49:19.348Z,94.20
2019-01-19T23:51:49.800Z,94.30
2019-01-19T23:54:20.181Z,94.80
2019-01-19T23:56:50.577Z,95.00
2019-01-19T23:59:21.117Z,95.10
